sensor_id;sensor_type;location;lat;lon;timestamp;temperature;humidity
13673;DHT22;6909;52.202;9.876;2023-09-18T00:00:50;17.40;99.90
13673;DHT22;6909;52.202;9.876;2023-09-18T00:03:17;17.30;99.90
13673;DHT22;6909;52.202;9.876;2023-09-18T00:05:44;17.40;99.90
13673;DHT22;6909;52.202;9.876;2023-09-18T00:08:11;17.40;99.90
13673;DHT22;6909;52.202;9.876;2023-09-18T00:10:38;17.30;99.90
13673;DHT22;6909;52.202;9.876;2023-09-18T00:13:05;17.20;99.90
13673;DHT22;6909;52.202;9.876;2023-09-18T00:15:33;17.20;99.90
13673;DHT22;6909;52.202;9.876;2023-09-18T00:17:59;17.30;99.90
13673;DHT22;6909;52.202;9.876;2023-09-18T00:20:27;17.50;99.90
13673;DHT22;6909;52.202;9.876;2023-09-18T00:22:54;17.60;99.90
13673;DHT22;6909;52.202;9.876;2023-09-18T00:25:21;17.70;99.90
13673;DHT22;6909;52.202;9.876;2023-09-18T00:27:48;17.90;99.90
13673;DHT22;6909;52.202;9.876;2023-09-18T00:30:15;18.00;99.90
13673;DHT22;6909;52.202;9.876;2023-09-18T00:32:43;18.00;99.90
13673;DHT22;6909;52.202;9.876;2023-09-18T00:35:12;18.00;99.90
13673;DHT22;6909;52.202;9.876;2023-09-18T00:37:39;18.00;99.90
13673;DHT22;6909;52.202;9.876;2023-09-18T00:40:07;18.10;99.90
13673;DHT22;6909;52.202;9.876;2023-09-18T00:42:34;18.20;99.90
13673;DHT22;6909;52.202;9.876;2023-09-18T00:45:01;18.30;99.90
13673;DHT22;6909;52.202;9.876;2023-09-18T00:47:28;18.40;99.90
13673;DHT22;6909;52.202;9.876;2023-09-18T00:49:57;18.40;99.90
13673;DHT22;6909;52.202;9.876;2023-09-18T00:52:23;18.40;99.90
13673;DHT22;6909;52.202;9.876;2023-09-18T00:54:51;18.50;99.90
13673;DHT22;6909;52.202;9.876;2023-09-18T00:57:19;18.50;99.90
13673;DHT22;6909;52.202;9.876;2023-09-18T00:59:46;18.40;99.90
13673;DHT22;6909;52.202;9.876;2023-09-18T01:02:13;18.30;99.90
13673;DHT22;6909;52.202;9.876;2023-09-18T01:04:40;18.30;99.90
13673;DHT22;6909;52.202;9.876;2023-09-18T01:07:10;18.20;99.90
13673;DHT22;6909;52.202;9.876;2023-09-18T01:09:37;18.10;99.90
13673;DHT22;6909;52.202;9.876;2023-09-18T01:12:10;18.10;99.90
13673;DHT22;6909;52.202;9.876;2023-09-18T01:14:42;18.10;99.90
13673;DHT22;6909;52.202;9.876;2023-09-18T01:17:12;18.00;99.90
13673;DHT22;6909;52.202;9.876;2023-09-18T01:19:41;18.00;99.90
13673;DHT22;6909;52.202;9.876;2023-09-18T01:22:12;18.10;99.90
13673;DHT22;6909;52.202;9.876;2023-09-18T01:24:41;18.30;99.90
13673;DHT22;6909;52.202;9.876;2023-09-18T01:27:09;18.30;99.90
13673;DHT22;6909;52.202;9.876;2023-09-18T01:29:36;18.50;99.90
13673;DHT22;6909;52.202;9.876;2023-09-18T01:32:04;18.50;99.90
13673;DHT22;6909;52.202;9.876;2023-09-18T01:34:33;18.50;99.90
13673;DHT22;6909;52.202;9.876;2023-09-18T01:37:02;18.50;99.90
13673;DHT22;6909;52.202;9.876;2023-09-18T01:39:31;18.60;99.90
13673;DHT22;6909;52.202;9.876;2023-09-18T01:42:00;18.60;99.90
13673;DHT22;6909;52.202;9.876;2023-09-18T01:44:28;18.60;99.90
13673;DHT22;6909;52.202;9.876;2023-09-18T01:46:57;18.60;99.90
13673;DHT22;6909;52.202;9.876;2023-09-18T01:49:28;18.70;99.90
13673;DHT22;6909;52.202;9.876;2023-09-18T01:51:55;18.60;99.90
13673;DHT22;6909;52.202;9.876;2023-09-18T01:54:22;18.60;99.90
13673;DHT22;6909;52.202;9.876;2023-09-18T01:56:48;18.60;99.90
13673;DHT22;6909;52.202;9.876;2023-09-18T01:59:17;18.60;99.90
13673;DHT22;6909;52.202;9.876;2023-09-18T02:01:43;18.60;99.90
13673;DHT22;6909;52.202;9.876;2023-09-18T02:04:10;18.60;99.90
13673;DHT22;6909;52.202;9.876;2023-09-18T02:06:37;18.50;99.90
13673;DHT22;6909;52.202;9.876;2023-09-18T02:09:04;18.50;99.90
13673;DHT22;6909;52.202;9.876;2023-09-18T02:11:30;18.50;99.90
13673;DHT22;6909;52.202;9.876;2023-09-18T02:13:57;18.50;99.90
13673;DHT22;6909;52.202;9.876;2023-09-18T02:16:25;18.50;99.90
13673;DHT22;6909;52.202;9.876;2023-09-18T02:18:54;18.50;99.90
13673;DHT22;6909;52.202;9.876;2023-09-18T02:21:22;18.40;99.90
13673;DHT22;6909;52.202;9.876;2023-09-18T02:23:49;18.40;99.90
13673;DHT22;6909;52.202;9.876;2023-09-18T02:26:16;18.30;99.90
13673;DHT22;6909;52.202;9.876;2023-09-18T02:28:43;18.20;99.90
13673;DHT22;6909;52.202;9.876;2023-09-18T02:31:10;18.20;99.90
13673;DHT22;6909;52.202;9.876;2023-09-18T02:33:39;18.20;99.90
13673;DHT22;6909;52.202;9.876;2023-09-18T02:36:06;18.20;99.90
13673;DHT22;6909;52.202;9.876;2023-09-18T02:38:33;18.10;99.90
13673;DHT22;6909;52.202;9.876;2023-09-18T02:41:00;18.20;99.90
13673;DHT22;6909;52.202;9.876;2023-09-18T02:43:27;18.20;99.90
13673;DHT22;6909;52.202;9.876;2023-09-18T02:45:54;18.30;99.90
13673;DHT22;6909;52.202;9.876;2023-09-18T02:48:20;18.30;99.90
13673;DHT22;6909;52.202;9.876;2023-09-18T02:50:48;18.30;99.90
13673;DHT22;6909;52.202;9.876;2023-09-18T02:53:17;18.20;99.90
13673;DHT22;6909;52.202;9.876;2023-09-18T02:55:44;18.10;99.90
13673;DHT22;6909;52.202;9.876;2023-09-18T02:58:11;18.10;99.90
13673;DHT22;6909;52.202;9.876;2023-09-18T03:00:41;18.00;99.90
13673;DHT22;6909;52.202;9.876;2023-09-18T03:03:08;18.00;99.90
13673;DHT22;6909;52.202;9.876;2023-09-18T03:05:35;18.00;99.90
13673;DHT22;6909;52.202;9.876;2023-09-18T03:08:04;17.90;99.90
13673;DHT22;6909;52.202;9.876;2023-09-18T03:10:32;17.80;99.90
13673;DHT22;6909;52.202;9.876;2023-09-18T03:13:00;17.70;99.90
13673;DHT22;6909;52.202;9.876;2023-09-18T03:15:27;17.60;99.90
13673;DHT22;6909;52.202;9.876;2023-09-18T03:17:54;17.60;99.90
13673;DHT22;6909;52.202;9.876;2023-09-18T03:20:22;17.50;99.90
13673;DHT22;6909;52.202;9.876;2023-09-18T03:22:49;17.50;99.90
13673;DHT22;6909;52.202;9.876;2023-09-18T03:25:17;17.50;99.90
13673;DHT22;6909;52.202;9.876;2023-09-18T03:27:43;17.40;99.90
13673;DHT22;6909;52.202;9.876;2023-09-18T03:30:10;17.40;99.90
13673;DHT22;6909;52.202;9.876;2023-09-18T03:32:41;17.40;99.90
13673;DHT22;6909;52.202;9.876;2023-09-18T03:35:08;17.40;99.90
13673;DHT22;6909;52.202;9.876;2023-09-18T03:37:41;17.40;99.90
13673;DHT22;6909;52.202;9.876;2023-09-18T03:40:09;17.60;99.90
13673;DHT22;6909;52.202;9.876;2023-09-18T03:42:37;17.90;99.90
13673;DHT22;6909;52.202;9.876;2023-09-18T03:45:06;18.00;99.90
13673;DHT22;6909;52.202;9.876;2023-09-18T03:47:34;18.10;99.90
13673;DHT22;6909;52.202;9.876;2023-09-18T03:50:01;18.30;99.90
13673;DHT22;6909;52.202;9.876;2023-09-18T03:52:28;18.30;99.90
13673;DHT22;6909;52.202;9.876;2023-09-18T03:54:54;18.30;99.90
13673;DHT22;6909;52.202;9.876;2023-09-18T03:57:21;18.20;99.90
13673;DHT22;6909;52.202;9.876;2023-09-18T03:59:49;18.30;99.90
13673;DHT22;6909;52.202;9.876;2023-09-18T04:02:16;18.30;99.90
13673;DHT22;6909;52.202;9.876;2023-09-18T04:04:43;18.40;99.90
13673;DHT22;6909;52.202;9.876;2023-09-18T04:07:10;18.40;99.90
13673;DHT22;6909;52.202;9.876;2023-09-18T04:09:37;18.40;99.90
13673;DHT22;6909;52.202;9.876;2023-09-18T04:12:05;18.40;99.90
13673;DHT22;6909;52.202;9.876;2023-09-18T04:14:32;18.40;99.90
13673;DHT22;6909;52.202;9.876;2023-09-18T04:17:00;18.40;99.90
13673;DHT22;6909;52.202;9.876;2023-09-18T04:19:27;18.40;99.90
13673;DHT22;6909;52.202;9.876;2023-09-18T04:21:54;18.20;99.90
13673;DHT22;6909;52.202;9.876;2023-09-18T04:24:21;18.10;99.90
13673;DHT22;6909;52.202;9.876;2023-09-18T04:26:49;17.90;99.90
13673;DHT22;6909;52.202;9.876;2023-09-18T04:29:16;17.60;99.90
13673;DHT22;6909;52.202;9.876;2023-09-18T04:31:43;17.70;99.90
13673;DHT22;6909;52.202;9.876;2023-09-18T04:34:11;18.00;99.90
13673;DHT22;6909;52.202;9.876;2023-09-18T04:36:38;18.50;99.90
13673;DHT22;6909;52.202;9.876;2023-09-18T04:39:05;19.60;99.90
13673;DHT22;6909;52.202;9.876;2023-09-18T04:41:32;20.20;99.90
13673;DHT22;6909;52.202;9.876;2023-09-18T04:43:59;20.30;99.90
13673;DHT22;6909;52.202;9.876;2023-09-18T04:46:26;20.50;1.00
13673;DHT22;6909;52.202;9.876;2023-09-18T04:48:53;20.70;1.00
13673;DHT22;6909;52.202;9.876;2023-09-18T04:51:21;20.70;99.90
13673;DHT22;6909;52.202;9.876;2023-09-18T04:53:47;21.00;1.00
13673;DHT22;6909;52.202;9.876;2023-09-18T04:56:14;21.10;99.90
13673;DHT22;6909;52.202;9.876;2023-09-18T04:58:41;21.00;99.90
13673;DHT22;6909;52.202;9.876;2023-09-18T05:01:07;21.00;1.00
13673;DHT22;6909;52.202;9.876;2023-09-18T05:03:36;21.00;1.00
13673;DHT22;6909;52.202;9.876;2023-09-18T05:06:03;21.10;1.00
13673;DHT22;6909;52.202;9.876;2023-09-18T05:08:31;21.20;99.90
13673;DHT22;6909;52.202;9.876;2023-09-18T05:10:58;21.20;99.90
13673;DHT22;6909;52.202;9.876;2023-09-18T05:13:25;21.10;1.00
13673;DHT22;6909;52.202;9.876;2023-09-18T05:15:51;21.00;91.90
13673;DHT22;6909;52.202;9.876;2023-09-18T05:18:18;21.10;1.00
13673;DHT22;6909;52.202;9.876;2023-09-18T05:20:45;21.00;1.00
13673;DHT22;6909;52.202;9.876;2023-09-18T05:23:12;20.90;99.90
13673;DHT22;6909;52.202;9.876;2023-09-18T05:25:41;20.70;99.90
13673;DHT22;6909;52.202;9.876;2023-09-18T05:28:09;20.60;99.90
13673;DHT22;6909;52.202;9.876;2023-09-18T05:30:36;21.30;1.00
13673;DHT22;6909;52.202;9.876;2023-09-18T05:33:05;21.70;1.00
13673;DHT22;6909;52.202;9.876;2023-09-18T05:35:33;22.30;1.00
13673;DHT22;6909;52.202;9.876;2023-09-18T05:37:59;22.60;1.00
13673;DHT22;6909;52.202;9.876;2023-09-18T05:40:26;22.50;1.00
13673;DHT22;6909;52.202;9.876;2023-09-18T05:42:55;22.30;1.00
13673;DHT22;6909;52.202;9.876;2023-09-18T05:45:22;22.10;99.90
13673;DHT22;6909;52.202;9.876;2023-09-18T05:47:49;22.20;18.40
13673;DHT22;6909;52.202;9.876;2023-09-18T05:50:16;22.30;1.00
13673;DHT22;6909;52.202;9.876;2023-09-18T05:52:44;22.30;1.00
13673;DHT22;6909;52.202;9.876;2023-09-18T05:55:11;22.40;1.00
13673;DHT22;6909;52.202;9.876;2023-09-18T05:57:38;22.60;1.00
13673;DHT22;6909;52.202;9.876;2023-09-18T06:00:07;22.40;99.90
13673;DHT22;6909;52.202;9.876;2023-09-18T06:02:38;22.20;99.90
13673;DHT22;6909;52.202;9.876;2023-09-18T06:05:06;22.00;99.90
13673;DHT22;6909;52.202;9.876;2023-09-18T06:07:34;22.00;94.70
13673;DHT22;6909;52.202;9.876;2023-09-18T06:10:01;22.10;1.00
13673;DHT22;6909;52.202;9.876;2023-09-18T06:12:28;22.00;1.00
13673;DHT22;6909;52.202;9.876;2023-09-18T06:14:55;22.00;1.00
13673;DHT22;6909;52.202;9.876;2023-09-18T06:17:24;21.80;10.50
13673;DHT22;6909;52.202;9.876;2023-09-18T06:19:51;21.70;99.90
13673;DHT22;6909;52.202;9.876;2023-09-18T06:22:18;21.70;6.50
13673;DHT22;6909;52.202;9.876;2023-09-18T06:24:45;21.60;25.10
13673;DHT22;6909;52.202;9.876;2023-09-18T06:27:11;21.60;1.00
13673;DHT22;6909;52.202;9.876;2023-09-18T06:29:38;21.70;1.00
13673;DHT22;6909;52.202;9.876;2023-09-18T06:32:05;21.80;1.00
13673;DHT22;6909;52.202;9.876;2023-09-18T06:34:34;21.80;1.00
13673;DHT22;6909;52.202;9.876;2023-09-18T06:37:01;21.80;1.00
13673;DHT22;6909;52.202;9.876;2023-09-18T06:39:29;21.70;1.00
13673;DHT22;6909;52.202;9.876;2023-09-18T06:41:55;21.70;1.00
13673;DHT22;6909;52.202;9.876;2023-09-18T06:44:22;21.60;1.00
13673;DHT22;6909;52.202;9.876;2023-09-18T06:46:49;21.60;1.00
13673;DHT22;6909;52.202;9.876;2023-09-18T06:49:16;21.80;99.90
13673;DHT22;6909;52.202;9.876;2023-09-18T06:51:44;21.80;99.90
13673;DHT22;6909;52.202;9.876;2023-09-18T06:54:11;21.90;99.90
13673;DHT22;6909;52.202;9.876;2023-09-18T06:56:37;22.00;86.30
13673;DHT22;6909;52.202;9.876;2023-09-18T06:59:04;22.10;26.30
13673;DHT22;6909;52.202;9.876;2023-09-18T07:01:31;22.00;34.70
13673;DHT22;6909;52.202;9.876;2023-09-18T07:03:58;22.00;1.00
13673;DHT22;6909;52.202;9.876;2023-09-18T07:06:25;22.00;1.00
13673;DHT22;6909;52.202;9.876;2023-09-18T07:08:53;22.00;1.00
13673;DHT22;6909;52.202;9.876;2023-09-18T07:11:20;22.00;40.10
13673;DHT22;6909;52.202;9.876;2023-09-18T07:13:47;22.00;13.60
13673;DHT22;6909;52.202;9.876;2023-09-18T07:16:13;21.90;99.90
13673;DHT22;6909;52.202;9.876;2023-09-18T07:18:40;21.80;99.90
13673;DHT22;6909;52.202;9.876;2023-09-18T07:21:07;21.80;99.90
13673;DHT22;6909;52.202;9.876;2023-09-18T07:23:34;21.80;99.90
13673;DHT22;6909;52.202;9.876;2023-09-18T07:26:03;21.80;99.90
13673;DHT22;6909;52.202;9.876;2023-09-18T07:28:31;21.80;99.90
13673;DHT22;6909;52.202;9.876;2023-09-18T07:31:04;21.80;99.90
13673;DHT22;6909;52.202;9.876;2023-09-18T07:33:31;21.80;99.90
13673;DHT22;6909;52.202;9.876;2023-09-18T07:35:58;21.90;99.90
13673;DHT22;6909;52.202;9.876;2023-09-18T07:38:25;22.00;59.00
13673;DHT22;6909;52.202;9.876;2023-09-18T07:40:51;22.00;1.00
13673;DHT22;6909;52.202;9.876;2023-09-18T07:43:19;22.00;1.00
13673;DHT22;6909;52.202;9.876;2023-09-18T07:45:49;22.00;1.00
13673;DHT22;6909;52.202;9.876;2023-09-18T07:48:16;22.00;1.00
13673;DHT22;6909;52.202;9.876;2023-09-18T07:50:45;21.90;1.00
13673;DHT22;6909;52.202;9.876;2023-09-18T07:53:14;22.00;1.00
13673;DHT22;6909;52.202;9.876;2023-09-18T07:55:41;22.00;1.00
13673;DHT22;6909;52.202;9.876;2023-09-18T07:58:08;22.00;1.00
13673;DHT22;6909;52.202;9.876;2023-09-18T08:00:36;22.10;1.00
13673;DHT22;6909;52.202;9.876;2023-09-18T08:03:03;22.10;1.00
13673;DHT22;6909;52.202;9.876;2023-09-18T08:05:30;22.20;1.00
13673;DHT22;6909;52.202;9.876;2023-09-18T08:07:57;22.30;1.00
13673;DHT22;6909;52.202;9.876;2023-09-18T08:10:24;22.50;1.00
13673;DHT22;6909;52.202;9.876;2023-09-18T08:12:51;22.80;1.00
13673;DHT22;6909;52.202;9.876;2023-09-18T08:15:19;22.90;99.90
13673;DHT22;6909;52.202;9.876;2023-09-18T08:17:47;23.00;99.90
13673;DHT22;6909;52.202;9.876;2023-09-18T08:20:15;23.10;99.90
13673;DHT22;6909;52.202;9.876;2023-09-18T08:22:42;23.00;99.90
13673;DHT22;6909;52.202;9.876;2023-09-18T08:25:10;22.90;20.20
13673;DHT22;6909;52.202;9.876;2023-09-18T08:27:37;22.80;31.50
13673;DHT22;6909;52.202;9.876;2023-09-18T08:30:07;22.80;94.70
13673;DHT22;6909;52.202;9.876;2023-09-18T08:32:35;22.70;99.90
13673;DHT22;6909;52.202;9.876;2023-09-18T08:35:04;22.80;99.90
13673;DHT22;6909;52.202;9.876;2023-09-18T08:37:31;23.00;85.20
13673;DHT22;6909;52.202;9.876;2023-09-18T08:39:58;23.10;6.90
13673;DHT22;6909;52.202;9.876;2023-09-18T08:42:27;23.30;1.00
13673;DHT22;6909;52.202;9.876;2023-09-18T08:44:57;23.30;1.00
13673;DHT22;6909;52.202;9.876;2023-09-18T08:47:25;23.50;1.00
13673;DHT22;6909;52.202;9.876;2023-09-18T08:49:54;23.50;1.00
13673;DHT22;6909;52.202;9.876;2023-09-18T08:52:24;23.50;1.00
13673;DHT22;6909;52.202;9.876;2023-09-18T08:54:52;23.50;1.00
13673;DHT22;6909;52.202;9.876;2023-09-18T08:57:21;23.30;1.00
13673;DHT22;6909;52.202;9.876;2023-09-18T08:59:48;23.50;1.00
13673;DHT22;6909;52.202;9.876;2023-09-18T09:02:16;23.50;1.00
13673;DHT22;6909;52.202;9.876;2023-09-18T09:04:43;23.60;1.00
13673;DHT22;6909;52.202;9.876;2023-09-18T09:07:10;23.70;1.00
13673;DHT22;6909;52.202;9.876;2023-09-18T09:09:38;23.80;1.00
13673;DHT22;6909;52.202;9.876;2023-09-18T09:12:06;23.70;1.00
13673;DHT22;6909;52.202;9.876;2023-09-18T09:14:32;23.70;1.00
13673;DHT22;6909;52.202;9.876;2023-09-18T09:16:59;23.80;99.90
13673;DHT22;6909;52.202;9.876;2023-09-18T09:19:30;23.90;99.90
13673;DHT22;6909;52.202;9.876;2023-09-18T09:21:57;23.90;99.90
13673;DHT22;6909;52.202;9.876;2023-09-18T09:24:45;23.70;99.90
13673;DHT22;6909;52.202;9.876;2023-09-18T09:27:12;23.70;99.90
13673;DHT22;6909;52.202;9.876;2023-09-18T09:29:40;23.70;99.90
13673;DHT22;6909;52.202;9.876;2023-09-18T09:32:14;23.80;99.90
13673;DHT22;6909;52.202;9.876;2023-09-18T09:34:42;23.70;1.00
13673;DHT22;6909;52.202;9.876;2023-09-18T09:37:09;23.60;1.00
13673;DHT22;6909;52.202;9.876;2023-09-18T09:39:47;23.60;1.00
13673;DHT22;6909;52.202;9.876;2023-09-18T09:42:16;23.70;1.00
13673;DHT22;6909;52.202;9.876;2023-09-18T09:45:02;23.70;99.90
13673;DHT22;6909;52.202;9.876;2023-09-18T09:47:33;23.50;99.90
13673;DHT22;6909;52.202;9.876;2023-09-18T09:50:06;23.30;99.90
13673;DHT22;6909;52.202;9.876;2023-09-18T09:52:35;23.10;99.90
13673;DHT22;6909;52.202;9.876;2023-09-18T09:55:18;23.00;1.00
13673;DHT22;6909;52.202;9.876;2023-09-18T09:57:48;23.00;1.00
13673;DHT22;6909;52.202;9.876;2023-09-18T10:00:16;23.00;99.90
13673;DHT22;6909;52.202;9.876;2023-09-18T10:02:54;22.90;99.90
13673;DHT22;6909;52.202;9.876;2023-09-18T10:05:26;23.00;1.00
13673;DHT22;6909;52.202;9.876;2023-09-18T10:07:54;23.10;99.90
13673;DHT22;6909;52.202;9.876;2023-09-18T10:10:29;23.30;1.00
13673;DHT22;6909;52.202;9.876;2023-09-18T10:12:59;23.40;99.90
13673;DHT22;6909;52.202;9.876;2023-09-18T10:15:28;23.50;99.90
13673;DHT22;6909;52.202;9.876;2023-09-18T10:18:00;23.50;99.90
13673;DHT22;6909;52.202;9.876;2023-09-18T10:20:29;23.50;99.90
13673;DHT22;6909;52.202;9.876;2023-09-18T10:22:57;23.40;99.90
13673;DHT22;6909;52.202;9.876;2023-09-18T10:25:29;23.40;99.90
13673;DHT22;6909;52.202;9.876;2023-09-18T10:27:57;23.40;99.90
13673;DHT22;6909;52.202;9.876;2023-09-18T10:30:27;23.50;99.90
13673;DHT22;6909;52.202;9.876;2023-09-18T10:32:56;23.50;99.90
13673;DHT22;6909;52.202;9.876;2023-09-18T10:35:23;23.50;99.90
13673;DHT22;6909;52.202;9.876;2023-09-18T10:37:50;23.70;99.90
13673;DHT22;6909;52.202;9.876;2023-09-18T10:40:20;23.80;99.90
13673;DHT22;6909;52.202;9.876;2023-09-18T10:42:50;23.80;99.90
13673;DHT22;6909;52.202;9.876;2023-09-18T10:45:20;23.60;99.90
13673;DHT22;6909;52.202;9.876;2023-09-18T10:47:48;23.60;99.90
13673;DHT22;6909;52.202;9.876;2023-09-18T10:50:22;23.70;99.90
13673;DHT22;6909;52.202;9.876;2023-09-18T10:52:49;23.70;99.90
13673;DHT22;6909;52.202;9.876;2023-09-18T10:55:16;23.90;99.90
13673;DHT22;6909;52.202;9.876;2023-09-18T10:57:52;23.80;99.90
13673;DHT22;6909;52.202;9.876;2023-09-18T11:00:19;24.00;99.90
13673;DHT22;6909;52.202;9.876;2023-09-18T11:02:49;23.90;99.90
13673;DHT22;6909;52.202;9.876;2023-09-18T11:05:28;23.90;99.30
13673;DHT22;6909;52.202;9.876;2023-09-18T11:08:26;23.90;99.90
13673;DHT22;6909;52.202;9.876;2023-09-18T11:10:59;24.00;99.90
13673;DHT22;6909;52.202;9.876;2023-09-18T11:13:34;23.90;99.90
13673;DHT22;6909;52.202;9.876;2023-09-18T11:16:16;23.90;9.80
13673;DHT22;6909;52.202;9.876;2023-09-18T11:18:47;23.80;37.50
13673;DHT22;6909;52.202;9.876;2023-09-18T11:21:15;23.80;1.00
13673;DHT22;6909;52.202;9.876;2023-09-18T11:23:44;23.70;1.00
13673;DHT22;6909;52.202;9.876;2023-09-18T11:26:11;23.80;63.20
13673;DHT22;6909;52.202;9.876;2023-09-18T11:28:39;23.90;1.00
13673;DHT22;6909;52.202;9.876;2023-09-18T11:31:08;24.10;1.00
13673;DHT22;6909;52.202;9.876;2023-09-18T11:33:38;24.30;1.00
13673;DHT22;6909;52.202;9.876;2023-09-18T11:36:12;24.50;1.00
13673;DHT22;6909;52.202;9.876;2023-09-18T11:38:53;24.50;1.00
13673;DHT22;6909;52.202;9.876;2023-09-18T11:41:23;24.50;1.00
13673;DHT22;6909;52.202;9.876;2023-09-18T11:43:52;24.40;1.00
13673;DHT22;6909;52.202;9.876;2023-09-18T11:46:20;24.10;1.00
13673;DHT22;6909;52.202;9.876;2023-09-18T11:48:48;23.90;1.00
13673;DHT22;6909;52.202;9.876;2023-09-18T11:51:22;23.90;1.00
13673;DHT22;6909;52.202;9.876;2023-09-18T11:53:53;23.90;1.00
13673;DHT22;6909;52.202;9.876;2023-09-18T11:56:21;23.90;1.00
13673;DHT22;6909;52.202;9.876;2023-09-18T11:58:49;24.00;1.00
13673;DHT22;6909;52.202;9.876;2023-09-18T12:01:18;24.10;1.00
13673;DHT22;6909;52.202;9.876;2023-09-18T12:03:45;24.30;1.00
13673;DHT22;6909;52.202;9.876;2023-09-18T12:06:13;24.30;1.00
13673;DHT22;6909;52.202;9.876;2023-09-18T12:08:41;24.40;1.00
13673;DHT22;6909;52.202;9.876;2023-09-18T12:11:08;24.40;1.00
13673;DHT22;6909;52.202;9.876;2023-09-18T12:13:34;24.50;1.00
13673;DHT22;6909;52.202;9.876;2023-09-18T12:16:02;24.50;1.00
13673;DHT22;6909;52.202;9.876;2023-09-18T12:18:32;24.70;1.00
13673;DHT22;6909;52.202;9.876;2023-09-18T12:21:01;24.80;1.00
13673;DHT22;6909;52.202;9.876;2023-09-18T12:23:37;24.80;1.00
13673;DHT22;6909;52.202;9.876;2023-09-18T12:26:04;24.80;1.00
13673;DHT22;6909;52.202;9.876;2023-09-18T12:28:33;24.70;1.00
13673;DHT22;6909;52.202;9.876;2023-09-18T12:31:00;24.50;1.00
13673;DHT22;6909;52.202;9.876;2023-09-18T12:33:34;24.30;1.00
13673;DHT22;6909;52.202;9.876;2023-09-18T12:36:02;24.30;1.00
13673;DHT22;6909;52.202;9.876;2023-09-18T12:38:30;24.10;1.00
13673;DHT22;6909;52.202;9.876;2023-09-18T12:40:57;24.10;1.00
13673;DHT22;6909;52.202;9.876;2023-09-18T12:43:33;24.30;1.00
13673;DHT22;6909;52.202;9.876;2023-09-18T12:46:01;24.40;1.00
13673;DHT22;6909;52.202;9.876;2023-09-18T12:48:29;24.30;1.00
13673;DHT22;6909;52.202;9.876;2023-09-18T12:51:02;24.40;1.00
13673;DHT22;6909;52.202;9.876;2023-09-18T12:53:29;24.30;1.00
13673;DHT22;6909;52.202;9.876;2023-09-18T12:56:04;24.10;1.00
13673;DHT22;6909;52.202;9.876;2023-09-18T12:58:31;23.90;1.00
13673;DHT22;6909;52.202;9.876;2023-09-18T13:00:58;23.90;1.00
13673;DHT22;6909;52.202;9.876;2023-09-18T13:03:32;23.90;1.00
13673;DHT22;6909;52.202;9.876;2023-09-18T13:06:08;23.80;1.00
13673;DHT22;6909;52.202;9.876;2023-09-18T13:08:35;23.80;1.00
13673;DHT22;6909;52.202;9.876;2023-09-18T13:11:02;23.90;1.00
13673;DHT22;6909;52.202;9.876;2023-09-18T13:13:32;23.90;1.00
13673;DHT22;6909;52.202;9.876;2023-09-18T13:16:05;23.80;1.00
13673;DHT22;6909;52.202;9.876;2023-09-18T13:18:32;23.70;1.00
13673;DHT22;6909;52.202;9.876;2023-09-18T13:20:59;23.70;1.00
13673;DHT22;6909;52.202;9.876;2023-09-18T13:23:30;23.80;1.00
13673;DHT22;6909;52.202;9.876;2023-09-18T13:26:02;23.80;1.00
13673;DHT22;6909;52.202;9.876;2023-09-18T13:28:29;23.70;1.00
13673;DHT22;6909;52.202;9.876;2023-09-18T13:30:59;23.60;1.00
13673;DHT22;6909;52.202;9.876;2023-09-18T13:33:26;23.40;1.00
13673;DHT22;6909;52.202;9.876;2023-09-18T13:35:53;23.30;1.00
13673;DHT22;6909;52.202;9.876;2023-09-18T13:38:21;23.20;1.00
13673;DHT22;6909;52.202;9.876;2023-09-18T13:40:50;23.10;1.00
13673;DHT22;6909;52.202;9.876;2023-09-18T13:43:16;23.10;99.90
13673;DHT22;6909;52.202;9.876;2023-09-18T13:45:44;23.10;29.90
13673;DHT22;6909;52.202;9.876;2023-09-18T13:48:12;23.20;99.90
13673;DHT22;6909;52.202;9.876;2023-09-18T13:50:40;23.20;99.90
13673;DHT22;6909;52.202;9.876;2023-09-18T13:53:07;23.20;25.90
13673;DHT22;6909;52.202;9.876;2023-09-18T13:55:35;23.20;99.10
13673;DHT22;6909;52.202;9.876;2023-09-18T13:58:03;23.30;99.90
13673;DHT22;6909;52.202;9.876;2023-09-18T14:00:31;23.40;49.00
13673;DHT22;6909;52.202;9.876;2023-09-18T14:02:58;23.40;99.90
13673;DHT22;6909;52.202;9.876;2023-09-18T14:05:25;23.50;99.90
13673;DHT22;6909;52.202;9.876;2023-09-18T14:07:53;23.40;99.90
13673;DHT22;6909;52.202;9.876;2023-09-18T14:10:25;23.40;99.90
13673;DHT22;6909;52.202;9.876;2023-09-18T14:12:51;23.40;99.90
13673;DHT22;6909;52.202;9.876;2023-09-18T14:15:19;23.50;99.90
13673;DHT22;6909;52.202;9.876;2023-09-18T14:17:46;23.50;99.90
13673;DHT22;6909;52.202;9.876;2023-09-18T14:20:13;23.40;99.90
13673;DHT22;6909;52.202;9.876;2023-09-18T14:22:43;23.40;67.20
13673;DHT22;6909;52.202;9.876;2023-09-18T14:25:10;23.30;99.90
13673;DHT22;6909;52.202;9.876;2023-09-18T14:27:37;23.40;92.00
13673;DHT22;6909;52.202;9.876;2023-09-18T14:30:04;23.30;66.10
13673;DHT22;6909;52.202;9.876;2023-09-18T14:32:33;23.20;99.90
13673;DHT22;6909;52.202;9.876;2023-09-18T14:35:01;23.20;84.80
13673;DHT22;6909;52.202;9.876;2023-09-18T14:37:28;23.20;99.90
13673;DHT22;6909;52.202;9.876;2023-09-18T14:39:55;23.10;99.90
13673;DHT22;6909;52.202;9.876;2023-09-18T14:42:22;23.10;99.90
13673;DHT22;6909;52.202;9.876;2023-09-18T14:44:49;23.10;99.90
13673;DHT22;6909;52.202;9.876;2023-09-18T14:47:15;23.10;99.90
13673;DHT22;6909;52.202;9.876;2023-09-18T14:49:44;23.10;99.90
13673;DHT22;6909;52.202;9.876;2023-09-18T14:52:12;23.10;99.90
13673;DHT22;6909;52.202;9.876;2023-09-18T14:54:39;23.00;99.90
13673;DHT22;6909;52.202;9.876;2023-09-18T14:57:07;23.00;99.90
13673;DHT22;6909;52.202;9.876;2023-09-18T14:59:33;23.00;99.90
13673;DHT22;6909;52.202;9.876;2023-09-18T15:02:00;23.00;99.90
13673;DHT22;6909;52.202;9.876;2023-09-18T15:04:28;22.90;99.90
13673;DHT22;6909;52.202;9.876;2023-09-18T15:06:56;22.80;1.00
13673;DHT22;6909;52.202;9.876;2023-09-18T15:09:23;22.80;1.00
13673;DHT22;6909;52.202;9.876;2023-09-18T15:11:50;22.80;99.90
13673;DHT22;6909;52.202;9.876;2023-09-18T15:14:16;22.70;1.00
13673;DHT22;6909;52.202;9.876;2023-09-18T15:16:43;22.70;1.00
13673;DHT22;6909;52.202;9.876;2023-09-18T15:19:10;22.60;1.00
13673;DHT22;6909;52.202;9.876;2023-09-18T15:21:39;22.60;1.00
13673;DHT22;6909;52.202;9.876;2023-09-18T15:24:08;22.60;1.00
13673;DHT22;6909;52.202;9.876;2023-09-18T15:26:35;22.50;1.00
13673;DHT22;6909;52.202;9.876;2023-09-18T15:29:05;22.50;1.00
13673;DHT22;6909;52.202;9.876;2023-09-18T15:31:33;22.50;1.00
13673;DHT22;6909;52.202;9.876;2023-09-18T15:34:00;22.60;1.00
13673;DHT22;6909;52.202;9.876;2023-09-18T15:36:27;22.70;1.00
13673;DHT22;6909;52.202;9.876;2023-09-18T15:38:54;22.70;1.00
13673;DHT22;6909;52.202;9.876;2023-09-18T15:41:23;22.70;1.00
13673;DHT22;6909;52.202;9.876;2023-09-18T15:43:50;22.70;1.00
13673;DHT22;6909;52.202;9.876;2023-09-18T15:46:16;22.70;1.00
13673;DHT22;6909;52.202;9.876;2023-09-18T15:48:44;22.60;1.00
13673;DHT22;6909;52.202;9.876;2023-09-18T15:51:11;22.60;1.00
13673;DHT22;6909;52.202;9.876;2023-09-18T15:53:38;22.50;1.00
13673;DHT22;6909;52.202;9.876;2023-09-18T15:56:06;22.50;1.00
13673;DHT22;6909;52.202;9.876;2023-09-18T15:58:34;22.50;1.00